createdAt,value
2023-05-19T00:01:08.698Z,80.88
2023-05-19T00:03:40.736Z,80.95
2023-05-19T00:06:12.562Z,81.23
2023-05-19T00:08:43.198Z,81.67
2023-05-19T00:11:23.136Z,81.48
2023-05-19T00:13:56.823Z,82.20
2023-05-19T00:16:31.572Z,81.74
2023-05-19T00:19:05.914Z,81.79
2023-05-19T00:21:37.912Z,82.04
2023-05-19T00:24:12.278Z,82.09
2023-05-19T00:26:51.166Z,82.01
2023-05-19T00:29:21.434Z,82.05
2023-05-19T00:31:54.149Z,81.81
2023-05-19T00:34:26.660Z,81.72
2023-05-19T00:36:57.294Z,81.51
2023-05-19T00:39:27.245Z,81.47
2023-05-19T00:42:00.387Z,81.48
2023-05-19T00:44:32.025Z,81.79
2023-05-19T00:47:02.764Z,81.60
2023-05-19T00:49:36.972Z,81.63
2023-05-19T00:52:09.779Z,81.65
2023-05-19T00:54:43.350Z,81.37
2023-05-19T00:57:19.881Z,81.62
2023-05-19T00:59:50.582Z,81.38
2023-05-19T01:02:21.823Z,81.64
2023-05-19T01:04:53.776Z,81.34
2023-05-19T01:07:25.683Z,81.12
2023-05-19T01:09:56.227Z,81.73
2023-05-19T01:12:29.359Z,81.80
2023-05-19T01:15:01.779Z,81.56
2023-05-19T01:17:40.576Z,81.12
2023-05-19T01:20:20.049Z,81.74
2023-05-19T01:23:24.136Z,81.67
2023-05-19T01:26:16.344Z,81.38
2023-05-19T01:29:31.413Z,81.44
2023-05-19T01:32:11.455Z,81.46
2023-05-19T01:34:47.676Z,81.49
2023-05-19T01:37:19.239Z,81.34
2023-05-19T01:39:51.391Z,81.31
2023-05-19T01:42:23.856Z,81.73
2023-05-19T01:44:55.458Z,81.64
2023-05-19T01:47:32.025Z,81.84
2023-05-19T01:50:19.664Z,81.82
2023-05-19T01:52:50.203Z,81.61
2023-05-19T01:55:21.450Z,81.90
2023-05-19T01:58:06.181Z,81.75
2023-05-19T02:00:48.450Z,81.57
2023-05-19T02:03:36.313Z,81.88
2023-05-19T02:06:19.996Z,82.16
2023-05-19T02:09:03.921Z,82.32
2023-05-19T02:11:39.775Z,82.55
2023-05-19T02:14:16.756Z,81.98
2023-05-19T02:16:50.800Z,82.35
2023-05-19T02:19:29.591Z,82.52
2023-05-19T02:21:59.946Z,82.90
2023-05-19T02:24:32.566Z,82.47
2023-05-19T02:27:03.323Z,82.79
2023-05-19T02:29:35.976Z,82.64
2023-05-19T02:32:06.335Z,82.79
2023-05-19T02:34:39.148Z,82.78
2023-05-19T02:37:09.597Z,82.73
2023-05-19T02:39:43.363Z,82.85
2023-05-19T02:42:17.939Z,83.14
2023-05-19T02:44:48.499Z,82.75
2023-05-19T02:47:19.258Z,83.33
2023-05-19T02:49:56.104Z,83.25
2023-05-19T02:52:26.101Z,83.19
2023-05-19T02:54:56.695Z,82.90
2023-05-19T02:57:30.392Z,82.91
2023-05-19T03:00:00.976Z,82.27
2023-05-19T03:02:34.679Z,82.21
2023-05-19T03:05:14.584Z,82.12
2023-05-19T03:07:47.782Z,82.77
2023-05-19T03:10:18.154Z,82.99
2023-05-19T03:12:51.154Z,82.04
2023-05-19T03:15:24.836Z,81.63
2023-05-19T03:17:55.377Z,81.89
2023-05-19T03:20:28.054Z,82.01
2023-05-19T03:22:58.278Z,82.12
2023-05-19T03:25:30.220Z,81.51
2023-05-19T03:28:02.962Z,81.82
2023-05-19T03:30:33.495Z,81.78
2023-05-19T03:33:07.592Z,81.86
2023-05-19T03:35:40.734Z,81.39
2023-05-19T03:38:12.086Z,81.12
2023-05-19T03:40:42.439Z,80.80
2023-05-19T03:43:16.494Z,80.50
2023-05-19T03:45:46.812Z,79.89
2023-05-19T03:48:21.187Z,79.32
2023-05-19T03:50:56.084Z,79.30
2023-05-19T03:53:30.595Z,78.40
2023-05-19T03:56:04.716Z,77.90
2023-05-19T03:58:37.271Z,77.51
2023-05-19T04:01:07.945Z,76.65
2023-05-19T04:03:39.209Z,76.03
2023-05-19T04:06:15.856Z,75.46
2023-05-19T04:08:47.257Z,74.56
2023-05-19T04:11:17.657Z,74.26
2023-05-19T04:13:52.169Z,74.21
2023-05-19T04:16:25.707Z,73.19
2023-05-19T04:18:58.658Z,72.41
2023-05-19T04:21:31.646Z,71.66
2023-05-19T04:24:02.935Z,71.07
2023-05-19T04:26:36.337Z,69.54
2023-05-19T04:29:06.798Z,68.50
2023-05-19T04:31:37.787Z,66.48
2023-05-19T04:34:08.313Z,63.60
2023-05-19T04:36:41.801Z,63.24
2023-05-19T04:39:14.714Z,61.43
2023-05-19T04:41:45.369Z,60.59
2023-05-19T04:44:18.636Z,58.87
2023-05-19T04:46:49.071Z,57.13
2023-05-19T04:49:19.470Z,56.65
2023-05-19T04:51:56.852Z,55.07
2023-05-19T04:54:29.497Z,53.80
2023-05-19T04:57:02.598Z,53.34
2023-05-19T04:59:34.341Z,51.47
2023-05-19T05:02:07.174Z,51.25
2023-05-19T05:04:37.967Z,49.91
2023-05-19T05:07:11.259Z,49.91
2023-05-19T05:09:41.556Z,49.84
2023-05-19T05:12:15.865Z,50.17
2023-05-19T05:14:49.257Z,50.66
2023-05-19T05:17:29.049Z,50.03
2023-05-19T05:20:06.410Z,48.66
2023-05-19T05:22:40.110Z,48.10
2023-05-19T05:25:12.392Z,46.75
2023-05-19T05:27:45.781Z,47.69
2023-05-19T05:30:16.747Z,47.87
2023-05-19T05:32:52.516Z,46.71
2023-05-19T05:35:27.894Z,46.98
2023-05-19T05:38:14.377Z,47.63
2023-05-19T05:40:44.722Z,48.28
2023-05-19T05:43:17.704Z,48.71
2023-05-19T05:45:48.283Z,48.18
2023-05-19T05:48:19.420Z,47.45
2023-05-19T05:50:57.550Z,47.37
2023-05-19T05:53:36.054Z,47.68
2023-05-19T05:56:16.109Z,47.87
2023-05-19T05:58:49.762Z,47.65
2023-05-19T06:01:24.237Z,46.50
2023-05-19T06:03:55.228Z,47.80
2023-05-19T06:06:25.643Z,45.60
2023-05-19T06:08:59.380Z,45.54
2023-05-19T06:11:35.182Z,44.38
2023-05-19T06:14:05.608Z,45.84
2023-05-19T06:16:38.062Z,44.56
2023-05-19T06:19:08.686Z,44.25
2023-05-19T06:21:39.045Z,45.07
2023-05-19T06:24:13.362Z,43.59
2023-05-19T06:26:44.947Z,42.80
2023-05-19T06:29:18.396Z,41.80
2023-05-19T06:31:49.826Z,44.22
2023-05-19T06:34:21.310Z,44.45
2023-05-19T06:36:51.652Z,43.60
2023-05-19T06:39:25.127Z,44.22
2023-05-19T06:41:55.503Z,44.67
2023-05-19T06:44:33.144Z,43.89
2023-05-19T06:47:03.457Z,41.95
2023-05-19T06:49:33.884Z,42.10
2023-05-19T06:52:04.381Z,41.94
2023-05-19T06:54:39.587Z,42.53
2023-05-19T06:57:12.591Z,43.91
2023-05-19T06:59:44.028Z,42.09
2023-05-19T07:02:15.575Z,41.02
2023-05-19T07:04:46.226Z,42.12
2023-05-19T07:07:19.200Z,40.18
2023-05-19T07:09:52.124Z,39.09
2023-05-19T07:12:22.418Z,40.09
2023-05-19T07:14:52.684Z,40.43
2023-05-19T07:17:24.814Z,40.92
2023-05-19T07:19:58.274Z,40.39
2023-05-19T07:22:31.339Z,39.38
2023-05-19T07:25:04.555Z,40.97
2023-05-19T07:27:34.941Z,39.92
2023-05-19T07:30:05.349Z,39.48
2023-05-19T07:32:38.694Z,39.06
2023-05-19T07:35:09.952Z,38.27
2023-05-19T07:37:41.796Z,39.62
2023-05-19T07:40:15.374Z,39.28
2023-05-19T07:42:45.674Z,37.13
2023-05-19T07:45:17.038Z,37.01
2023-05-19T07:47:47.547Z,39.07
2023-05-19T07:50:17.939Z,37.19
2023-05-19T07:52:50.645Z,37.27
2023-05-19T07:55:23.597Z,35.11
2023-05-19T07:57:57.558Z,36.03
2023-05-19T08:00:32.044Z,36.32
2023-05-19T08:03:06.185Z,36.77
2023-05-19T08:05:40.058Z,36.00
2023-05-19T08:08:17.351Z,36.62
2023-05-19T08:10:50.286Z,36.92
2023-05-19T08:13:20.726Z,37.49
2023-05-19T08:15:54.645Z,35.42
2023-05-19T08:18:28.158Z,37.30
2023-05-19T08:20:58.818Z,36.43
2023-05-19T08:23:29.354Z,35.98
2023-05-19T08:26:02.540Z,35.84
2023-05-19T08:28:35.070Z,36.44
2023-05-19T08:31:05.368Z,35.85
2023-05-19T08:33:35.724Z,36.35
2023-05-19T08:36:06.831Z,36.51
2023-05-19T08:38:37.142Z,35.88
2023-05-19T08:41:10.148Z,35.97
2023-05-19T08:43:40.669Z,35.86
2023-05-19T08:46:10.946Z,35.52
2023-05-19T08:48:45.301Z,35.35
2023-05-19T08:51:28.588Z,34.88
2023-05-19T08:54:07.571Z,35.46
2023-05-19T08:56:41.782Z,37.03
2023-05-19T08:59:12.777Z,37.09
2023-05-19T09:01:46.956Z,36.10
2023-05-19T09:04:18.566Z,36.67
2023-05-19T09:06:50.539Z,36.76
2023-05-19T09:09:20.801Z,35.92
2023-05-19T09:12:02.803Z,37.33
2023-05-19T09:14:33.334Z,38.38
2023-05-19T09:17:04.728Z,38.71
2023-05-19T09:19:37.766Z,37.54
2023-05-19T09:22:08.416Z,37.74
2023-05-19T09:24:40.710Z,37.39
2023-05-19T09:27:17.686Z,37.18
2023-05-19T09:29:48.074Z,36.39
2023-05-19T09:32:27.995Z,38.66
2023-05-19T09:34:59.083Z,40.12
2023-05-19T09:37:32.435Z,38.59
2023-05-19T09:40:03.156Z,38.77
2023-05-19T09:42:41.180Z,38.24
2023-05-19T09:45:12.492Z,38.12
2023-05-19T09:47:44.228Z,38.29
2023-05-19T09:50:17.316Z,41.70
2023-05-19T09:52:47.788Z,39.55
2023-05-19T09:55:19.008Z,38.69
2023-05-19T09:57:53.172Z,39.26
2023-05-19T10:00:24.387Z,37.99
2023-05-19T10:02:55.245Z,38.77
2023-05-19T10:05:26.663Z,40.24
2023-05-19T10:07:58.336Z,38.78
2023-05-19T10:10:31.452Z,38.01
2023-05-19T10:13:05.456Z,39.14
2023-05-19T10:15:40.700Z,38.19
2023-05-19T10:18:16.378Z,39.18
2023-05-19T10:20:47.247Z,39.49
2023-05-19T10:23:17.566Z,39.59
2023-05-19T10:25:49.486Z,37.82
2023-05-19T10:28:25.705Z,38.80
2023-05-19T10:31:05.693Z,40.81
2023-05-19T10:33:45.617Z,39.87
2023-05-19T10:36:36.632Z,38.05
2023-05-19T10:39:10.665Z,37.96
2023-05-19T10:41:49.733Z,39.31
2023-05-19T10:44:31.547Z,38.32
2023-05-19T10:47:07.887Z,39.53
2023-05-19T10:49:38.864Z,38.92
2023-05-19T10:52:29.964Z,41.22
2023-05-19T10:55:00.824Z,41.34
2023-05-19T10:57:34.972Z,38.84
2023-05-19T11:00:32.445Z,39.76
2023-05-19T11:03:21.052Z,39.79
2023-05-19T11:05:53.239Z,38.74
2023-05-19T11:08:35.425Z,37.97
2023-05-19T11:11:19.126Z,39.39
2023-05-19T11:13:51.247Z,41.37
2023-05-19T11:16:35.763Z,42.20
2023-05-19T11:19:06.276Z,39.89
2023-05-19T11:21:50.747Z,40.33
2023-05-19T11:24:36.669Z,40.41
2023-05-19T11:27:22.710Z,40.05
2023-05-19T11:29:53.657Z,40.64
2023-05-19T11:32:33.816Z,41.24
2023-05-19T11:35:09.289Z,41.40
2023-05-19T11:37:43.083Z,40.01
2023-05-19T11:40:20.316Z,40.56
2023-05-19T11:42:50.621Z,39.70
2023-05-19T11:45:23.081Z,41.56
2023-05-19T11:48:02.608Z,40.25
2023-05-19T11:50:37.121Z,42.31
2023-05-19T11:53:12.423Z,39.22
2023-05-19T11:55:51.905Z,38.94
2023-05-19T11:58:29.456Z,38.79
2023-05-19T12:00:59.946Z,39.72
2023-05-19T12:03:33.384Z,38.88
2023-05-19T12:06:11.516Z,39.77
2023-05-19T12:08:44.437Z,39.70
2023-05-19T12:11:14.866Z,39.25
2023-05-19T12:13:45.387Z,39.34
2023-05-19T12:16:15.749Z,38.50
2023-05-19T12:18:48.776Z,39.57
2023-05-19T12:21:20.260Z,39.93
2023-05-19T12:23:52.934Z,40.52
2023-05-19T12:26:23.365Z,39.07
2023-05-19T12:28:56.775Z,39.07
2023-05-19T12:31:27.197Z,39.68
2023-05-19T12:34:02.382Z,37.68
2023-05-19T12:36:35.973Z,38.03
2023-05-19T12:39:09.765Z,38.35
2023-05-19T12:41:40.181Z,37.41
2023-05-19T12:44:21.524Z,37.21
2023-05-19T12:47:01.658Z,38.15
2023-05-19T12:49:37.613Z,38.40
2023-05-19T12:52:13.199Z,38.39
2023-05-19T12:54:43.974Z,40.58
2023-05-19T12:57:14.365Z,38.56
2023-05-19T12:59:47.185Z,39.73
2023-05-19T13:02:21.317Z,38.21
2023-05-19T13:04:54.654Z,38.25
2023-05-19T13:07:31.164Z,39.00
2023-05-19T13:10:01.735Z,38.62
2023-05-19T13:12:39.492Z,40.08
2023-05-19T13:15:14.833Z,39.97
2023-05-19T13:17:49.085Z,40.67
2023-05-19T13:20:22.176Z,40.26
2023-05-19T13:22:54.394Z,39.80
2023-05-19T13:25:36.661Z,39.71
2023-05-19T13:28:14.314Z,38.24
2023-05-19T13:30:46.633Z,38.77
2023-05-19T13:33:17.278Z,38.74
2023-05-19T13:35:50.771Z,38.98
2023-05-19T13:38:21.427Z,38.97
2023-05-19T13:40:53.896Z,38.66
2023-05-19T13:43:24.327Z,39.65
2023-05-19T13:45:55.177Z,38.97
2023-05-19T13:48:25.857Z,39.30
2023-05-19T13:50:59.872Z,39.25
2023-05-19T13:53:31.403Z,39.18
2023-05-19T13:56:03.786Z,38.83
2023-05-19T13:58:36.259Z,38.68
2023-05-19T14:01:07.099Z,39.32
2023-05-19T14:03:41.748Z,37.74
2023-05-19T14:06:14.894Z,38.48
2023-05-19T14:08:47.792Z,39.56
2023-05-19T14:11:21.873Z,38.98
2023-05-19T14:13:53.158Z,38.38
2023-05-19T14:16:26.373Z,37.43
2023-05-19T14:18:59.213Z,37.10
2023-05-19T14:21:32.821Z,37.58
2023-05-19T14:24:03.172Z,38.32
2023-05-19T14:26:33.744Z,37.44
2023-05-19T14:29:06.298Z,37.03
2023-05-19T14:31:40.261Z,37.18
2023-05-19T14:34:10.589Z,36.62
2023-05-19T14:36:43.771Z,37.73
2023-05-19T14:39:14.547Z,37.82
2023-05-19T14:41:50.080Z,36.90
2023-05-19T14:44:26.570Z,37.55
2023-05-19T14:46:56.919Z,37.63
2023-05-19T14:49:27.261Z,37.54
2023-05-19T14:52:02.581Z,37.34
2023-05-19T14:54:32.923Z,37.39
2023-05-19T14:57:03.574Z,37.68
2023-05-19T14:59:40.136Z,36.38
2023-05-19T15:02:13.288Z,37.42
2023-05-19T15:04:43.607Z,37.38
2023-05-19T15:07:21.899Z,37.54
2023-05-19T15:09:52.406Z,36.96
2023-05-19T15:12:25.795Z,36.77
2023-05-19T15:14:56.528Z,37.59
2023-05-19T15:17:26.860Z,37.94
2023-05-19T15:19:57.222Z,38.44
2023-05-19T15:22:31.317Z,38.60
2023-05-19T15:25:01.728Z,38.58
2023-05-19T15:27:32.215Z,37.26
2023-05-19T15:30:02.586Z,37.98
2023-05-19T15:32:32.928Z,38.08
2023-05-19T15:35:03.963Z,38.02
2023-05-19T15:37:36.780Z,38.46
2023-05-19T15:40:07.960Z,38.42
2023-05-19T15:42:38.558Z,38.96
2023-05-19T15:45:13.125Z,39.16
2023-05-19T15:47:45.803Z,39.28
2023-05-19T15:50:18.538Z,38.33
2023-05-19T15:52:59.463Z,38.23
2023-05-19T15:55:42.184Z,38.81
2023-05-19T15:58:15.815Z,38.17
2023-05-19T16:00:46.698Z,37.68
2023-05-19T16:03:17.024Z,37.24
2023-05-19T16:05:47.384Z,37.63
2023-05-19T16:08:20.282Z,38.65
2023-05-19T16:10:50.476Z,38.67
2023-05-19T16:13:20.816Z,39.33
2023-05-19T16:15:54.659Z,40.00
2023-05-19T16:18:32.051Z,41.25
2023-05-19T16:21:04.496Z,42.30
2023-05-19T16:23:38.757Z,43.36
2023-05-19T16:26:11.876Z,43.87
2023-05-19T16:28:42.132Z,44.36
2023-05-19T16:31:12.741Z,44.72
2023-05-19T16:33:43.686Z,44.80
2023-05-19T16:36:13.958Z,45.21
2023-05-19T16:38:47.064Z,45.04
2023-05-19T16:41:17.850Z,44.06
2023-05-19T16:43:48.191Z,44.92
2023-05-19T16:46:21.917Z,45.44
2023-05-19T16:48:55.109Z,45.46
2023-05-19T16:51:32.557Z,45.63
2023-05-19T16:54:05.482Z,45.27
2023-05-19T16:56:35.764Z,45.56
2023-05-19T16:59:11.296Z,45.74
2023-05-19T17:01:43.986Z,46.11
2023-05-19T17:04:16.415Z,45.93
2023-05-19T17:06:47.544Z,46.60
2023-05-19T17:09:25.257Z,46.69
2023-05-19T17:11:59.162Z,47.57
2023-05-19T17:14:29.690Z,47.98
2023-05-19T17:17:02.952Z,48.26
2023-05-19T17:19:33.353Z,48.55
2023-05-19T17:22:04.066Z,48.92
2023-05-19T17:24:36.930Z,49.72
2023-05-19T17:27:10.436Z,49.81
2023-05-19T17:29:41.845Z,50.51
2023-05-19T17:32:14.271Z,50.44
2023-05-19T17:34:44.639Z,50.67
2023-05-19T17:37:17.813Z,50.89
2023-05-19T17:39:53.843Z,51.00
2023-05-19T17:42:24.228Z,51.35
2023-05-19T17:44:54.608Z,51.69
2023-05-19T17:47:29.715Z,52.25
2023-05-19T17:50:00.294Z,52.77
2023-05-19T17:52:32.022Z,52.94
2023-05-19T17:55:10.793Z,53.65
2023-05-19T17:57:43.445Z,53.49
2023-05-19T18:00:20.684Z,53.76
2023-05-19T18:02:52.150Z,53.89
2023-05-19T18:05:24.133Z,54.05
2023-05-19T18:07:59.252Z,54.66
2023-05-19T18:10:38.769Z,55.07
2023-05-19T18:13:16.943Z,55.42
2023-05-19T18:15:47.351Z,55.76
2023-05-19T18:18:20.761Z,55.68
2023-05-19T18:20:53.195Z,55.97
2023-05-19T18:23:26.459Z,56.18
2023-05-19T18:26:02.100Z,56.87
2023-05-19T18:28:32.838Z,57.58
2023-05-19T18:31:06.280Z,58.17
2023-05-19T18:33:39.298Z,58.70
2023-05-19T18:36:16.110Z,58.71
2023-05-19T18:38:47.592Z,59.32
2023-05-19T18:41:20.522Z,60.24
2023-05-19T18:43:51.167Z,60.72
2023-05-19T18:46:23.822Z,61.61
2023-05-19T18:48:58.476Z,62.44
2023-05-19T18:51:30.250Z,62.85
2023-05-19T18:54:00.606Z,63.19
2023-05-19T18:56:37.537Z,63.75
2023-05-19T18:59:07.941Z,64.00
2023-05-19T19:01:38.354Z,64.15
2023-05-19T19:04:09.266Z,64.04
2023-05-19T19:06:42.007Z,63.86
2023-05-19T19:09:13.034Z,64.09
2023-05-19T19:11:45.992Z,61.04
2023-05-19T19:14:16.331Z,59.93
2023-05-19T19:16:47.093Z,59.30
2023-05-19T19:19:20.982Z,59.19
2023-05-19T19:21:51.833Z,58.94
2023-05-19T19:24:24.408Z,59.08
2023-05-19T19:27:00.431Z,57.64
2023-05-19T19:29:31.166Z,57.29
2023-05-19T19:32:16.499Z,56.87
2023-05-19T19:34:49.606Z,56.93
2023-05-19T19:37:27.612Z,57.53
2023-05-19T19:39:58.496Z,57.62
2023-05-19T19:42:35.026Z,57.95
2023-05-19T19:45:08.318Z,58.61
2023-05-19T19:47:38.649Z,58.72
2023-05-19T19:50:10.423Z,58.33
2023-05-19T19:52:41.049Z,58.77
2023-05-19T19:55:12.894Z,58.77
2023-05-19T19:57:49.642Z,58.89
2023-05-19T20:00:21.228Z,59.48
2023-05-19T20:03:04.454Z,59.46
2023-05-19T20:05:36.290Z,59.63
2023-05-19T20:08:08.860Z,59.96
2023-05-19T20:10:39.443Z,60.26
2023-05-19T20:13:12.641Z,60.37
2023-05-19T20:15:44.103Z,60.33
2023-05-19T20:18:17.898Z,60.58
2023-05-19T20:20:50.235Z,60.51
2023-05-19T20:23:20.647Z,60.37
2023-05-19T20:26:10.359Z,60.39
2023-05-19T20:28:45.356Z,60.59
2023-05-19T20:31:15.916Z,60.98
2023-05-19T20:33:47.721Z,61.03
2023-05-19T20:36:18.957Z,61.54
2023-05-19T20:39:00.964Z,61.36
2023-05-19T20:41:34.789Z,61.68
2023-05-19T20:44:12.834Z,61.80
2023-05-19T20:46:47.051Z,61.95
2023-05-19T20:49:17.368Z,62.38
2023-05-19T20:51:50.045Z,63.21
2023-05-19T20:54:20.502Z,62.89
2023-05-19T20:56:50.838Z,63.65
2023-05-19T20:59:32.233Z,64.22
2023-05-19T21:02:03.738Z,63.97
2023-05-19T21:04:37.211Z,64.46
2023-05-19T21:07:10.670Z,65.05
2023-05-19T21:09:42.973Z,66.11
2023-05-19T21:12:16.435Z,66.25
2023-05-19T21:14:52.022Z,66.70
2023-05-19T21:17:22.721Z,66.63
2023-05-19T21:19:58.268Z,66.63
2023-05-19T21:22:29.440Z,66.73
2023-05-19T21:25:00.495Z,67.02
2023-05-19T21:27:32.460Z,67.17
2023-05-19T21:30:13.637Z,66.77
2023-05-19T21:32:46.199Z,65.61
2023-05-19T21:35:21.767Z,64.96
2023-05-19T21:37:52.264Z,64.80
2023-05-19T21:40:22.722Z,64.05
2023-05-19T21:42:53.925Z,64.21
2023-05-19T21:45:29.700Z,63.80
2023-05-19T21:48:02.927Z,63.72
2023-05-19T21:50:43.689Z,63.78
2023-05-19T21:53:13.946Z,63.79
2023-05-19T21:55:43.963Z,63.54
2023-05-19T21:58:14.179Z,63.96
2023-05-19T22:00:52.855Z,64.01
2023-05-19T22:03:27.096Z,63.97
2023-05-19T22:05:58.328Z,64.18
2023-05-19T22:08:28.594Z,64.49
2023-05-19T22:10:59.028Z,64.26
2023-05-19T22:13:34.375Z,64.71
2023-05-19T22:16:10.408Z,64.60
2023-05-19T22:18:41.044Z,65.06
2023-05-19T22:21:13.734Z,65.16
2023-05-19T22:23:44.058Z,65.63
2023-05-19T22:26:14.315Z,65.74
2023-05-19T22:28:47.516Z,65.85
2023-05-19T22:31:20.973Z,66.45
2023-05-19T22:33:53.915Z,67.06
2023-05-19T22:36:24.321Z,67.41
2023-05-19T22:38:54.845Z,67.30
2023-05-19T22:41:27.895Z,67.72
2023-05-19T22:43:58.258Z,67.29
2023-05-19T22:46:33.087Z,67.94
2023-05-19T22:49:06.371Z,67.98
2023-05-19T22:51:39.643Z,68.65
2023-05-19T22:54:10.707Z,69.14
2023-05-19T22:56:44.454Z,69.95
2023-05-19T22:59:19.529Z,70.00
2023-05-19T23:01:52.465Z,70.38
2023-05-19T23:04:22.809Z,70.76
2023-05-19T23:06:55.414Z,71.23
2023-05-19T23:09:27.696Z,71.54
2023-05-19T23:12:04.020Z,72.24
2023-05-19T23:14:34.516Z,72.25
2023-05-19T23:17:13.211Z,72.71
2023-05-19T23:19:44.979Z,73.26
2023-05-19T23:22:17.543Z,73.33
2023-05-19T23:24:47.940Z,73.56
2023-05-19T23:27:18.185Z,74.09
2023-05-19T23:29:50.189Z,74.57
2023-05-19T23:32:23.034Z,74.28
2023-05-19T23:34:56.165Z,74.46
2023-05-19T23:37:26.745Z,74.60
2023-05-19T23:40:02.082Z,75.20
2023-05-19T23:42:32.445Z,75.08
2023-05-19T23:45:05.714Z,75.72
2023-05-19T23:47:43.119Z,75.48
2023-05-19T23:50:14.065Z,75.75
2023-05-19T23:52:44.389Z,76.22
2023-05-19T23:55:15.327Z,76.38
2023-05-19T23:57:46.038Z,76.48
